createdAt,value
2022-12-27T00:00:44.389Z,8.37
2022-12-27T00:05:49.115Z,8.31
2022-12-27T00:10:51.643Z,8.21
2022-12-27T00:15:54.358Z,8.13
2022-12-27T00:21:04.229Z,8.14
2022-12-27T00:26:19.345Z,8.32
2022-12-27T00:31:24.072Z,7.72
2022-12-27T00:36:28.720Z,7.89
2022-12-27T00:41:32.073Z,7.99
2022-12-27T00:46:39.482Z,7.94
2022-12-27T00:51:42.340Z,7.51
2022-12-27T00:56:45.116Z,7.67
2022-12-27T01:01:48.052Z,7.92
2022-12-27T01:06:50.638Z,8.21
2022-12-27T01:11:53.509Z,8.14
2022-12-27T01:16:56.207Z,7.96
2022-12-27T01:22:06.192Z,7.78
2022-12-27T01:27:08.891Z,8.54
2022-12-27T01:32:13.214Z,7.78
2022-12-27T01:37:15.781Z,8.24
2022-12-27T01:42:38.338Z,8.36
2022-12-27T01:47:43.966Z,8.60
2022-12-27T01:52:52.280Z,8.33
2022-12-27T01:58:00.475Z,8.03
2022-12-27T02:03:13.895Z,8.70
2022-12-27T02:08:42.147Z,8.80
2022-12-27T02:13:47.104Z,8.15
2022-12-27T02:18:49.676Z,8.70
2022-12-27T02:24:04.329Z,8.79
2022-12-27T02:29:37.681Z,8.86
2022-12-27T02:34:51.685Z,8.76
2022-12-27T02:39:56.533Z,8.25
2022-12-27T02:45:18.574Z,8.97
2022-12-27T02:50:39.961Z,8.74
2022-12-27T02:56:14.651Z,8.97
2022-12-27T03:02:09.498Z,9.03
2022-12-27T03:07:35.151Z,8.83
2022-12-27T03:13:15.265Z,9.00
2022-12-27T03:18:36.115Z,8.87
2022-12-27T03:24:00.826Z,8.44
2022-12-27T03:29:28.565Z,8.70
2022-12-27T03:34:40.811Z,8.23
2022-12-27T03:39:53.905Z,8.93
2022-12-27T03:44:56.890Z,8.77
2022-12-27T03:50:16.913Z,8.91
2022-12-27T03:55:20.380Z,8.66
2022-12-27T04:00:23.112Z,8.34
2022-12-27T04:05:25.833Z,8.72
2022-12-27T04:10:47.184Z,8.75
2022-12-27T04:16:17.845Z,8.82
2022-12-27T04:21:39.154Z,8.44
2022-12-27T04:27:00.000Z,8.60
2022-12-27T04:32:20.917Z,8.61
2022-12-27T04:37:40.654Z,8.55
2022-12-27T04:43:08.950Z,8.55
2022-12-27T04:48:35.400Z,8.67
2022-12-27T04:53:57.839Z,8.76
2022-12-27T04:59:19.153Z,8.37
2022-12-27T05:04:21.862Z,8.40
2022-12-27T05:09:43.554Z,8.11
2022-12-27T05:14:46.876Z,8.68
2022-12-27T05:19:49.694Z,8.11
2022-12-27T05:25:10.704Z,8.54
2022-12-27T05:30:13.537Z,8.34
2022-12-27T05:35:26.475Z,8.56
2022-12-27T05:40:29.288Z,7.98
2022-12-27T05:45:31.808Z,8.61
2022-12-27T05:50:34.356Z,8.68
2022-12-27T05:55:37.856Z,8.66
2022-12-27T06:00:40.368Z,8.66
2022-12-27T06:05:43.137Z,8.67
2022-12-27T06:10:45.747Z,8.67
2022-12-27T06:15:48.265Z,8.65
2022-12-27T06:20:50.750Z,8.18
2022-12-27T06:25:53.579Z,8.47
2022-12-27T06:31:06.458Z,8.57
2022-12-27T06:36:14.457Z,8.61
2022-12-27T06:41:19.260Z,7.96
2022-12-27T06:46:22.019Z,8.52
2022-12-27T06:51:24.566Z,8.72
2022-12-27T06:56:27.205Z,8.34
2022-12-27T07:01:40.073Z,8.22
2022-12-27T07:06:42.750Z,7.90
2022-12-27T07:11:46.375Z,8.17
2022-12-27T07:16:50.005Z,8.70
2022-12-27T07:21:52.595Z,8.20
2022-12-27T07:26:55.223Z,8.59
2022-12-27T07:31:57.804Z,8.52
2022-12-27T07:37:00.453Z,8.66
2022-12-27T07:42:07.896Z,8.51
2022-12-27T07:47:10.975Z,8.18
2022-12-27T07:52:13.507Z,8.48
2022-12-27T07:57:16.008Z,8.68
2022-12-27T08:02:19.156Z,8.35
2022-12-27T08:07:27.021Z,8.59
2022-12-27T08:12:33.523Z,8.64
2022-12-27T08:17:36.399Z,8.20
2022-12-27T08:22:38.911Z,8.05
2022-12-27T08:27:41.425Z,8.78
2022-12-27T08:32:44.350Z,8.55
2022-12-27T08:37:46.897Z,8.19
2022-12-27T08:42:49.648Z,8.71
2022-12-27T08:48:02.688Z,9.03
2022-12-27T08:53:06.926Z,9.31
2022-12-27T08:58:16.263Z,9.22
2022-12-27T09:03:21.638Z,9.65
2022-12-27T09:08:24.176Z,9.34
2022-12-27T09:13:26.778Z,9.78
2022-12-27T09:18:29.393Z,9.49
2022-12-27T09:23:32.114Z,10.12
2022-12-27T09:28:35.038Z,10.05
2022-12-27T09:33:37.990Z,10.63
2022-12-27T09:38:42.103Z,10.72
2022-12-27T09:44:11.802Z,10.75
2022-12-27T09:49:23.379Z,10.19
2022-12-27T09:54:38.084Z,10.72
2022-12-27T09:59:48.491Z,10.72
2022-12-27T10:05:19.148Z,10.78
2022-12-27T10:10:42.425Z,10.90
2022-12-27T10:15:54.887Z,10.87
2022-12-27T10:21:15.434Z,10.59
2022-12-27T10:26:20.590Z,10.45
2022-12-27T10:31:25.213Z,10.85
2022-12-27T10:36:31.035Z,10.81
2022-12-27T10:41:55.085Z,10.67
2022-12-27T10:46:58.679Z,10.90
2022-12-27T10:52:19.230Z,10.59
2022-12-27T10:57:29.701Z,10.85
2022-12-27T11:02:33.166Z,10.24
2022-12-27T11:07:36.730Z,10.18
2022-12-27T11:12:40.014Z,10.72
2022-12-27T11:18:02.664Z,10.55
2022-12-27T11:23:14.688Z,10.69
2022-12-27T11:28:26.947Z,10.79
2022-12-27T11:33:54.329Z,10.96
2022-12-27T11:38:58.713Z,10.77
2022-12-27T11:44:23.825Z,10.74
2022-12-27T11:49:36.838Z,10.96
2022-12-27T11:55:17.817Z,10.95
2022-12-27T12:00:25.399Z,10.82
2022-12-27T12:05:44.873Z,10.83
2022-12-27T12:11:15.672Z,10.88
2022-12-27T12:16:47.299Z,10.73
2022-12-27T12:22:13.601Z,10.55
2022-12-27T12:27:31.074Z,10.73
2022-12-27T12:32:41.991Z,9.99
2022-12-27T12:38:20.906Z,10.74
2022-12-27T12:43:46.272Z,10.74
2022-12-27T12:49:09.149Z,10.15
2022-12-27T12:54:58.795Z,10.38
2022-12-27T13:00:13.341Z,10.59
2022-12-27T13:05:30.148Z,10.79
2022-12-27T13:11:05.465Z,10.79
2022-12-27T13:16:37.612Z,11.07
2022-12-27T13:22:17.803Z,11.04
2022-12-27T13:27:36.191Z,10.40
2022-12-27T13:33:04.381Z,10.30
2022-12-27T13:38:24.130Z,10.84
2022-12-27T13:43:36.512Z,10.90
2022-12-27T13:49:08.062Z,11.38
2022-12-27T13:54:14.342Z,11.30
2022-12-27T13:59:32.426Z,11.12
2022-12-27T14:04:47.975Z,11.02
2022-12-27T14:10:06.881Z,10.97
2022-12-27T14:15:18.717Z,10.22
2022-12-27T14:20:47.116Z,10.87
2022-12-27T14:26:21.191Z,10.91
2022-12-27T14:31:52.382Z,10.79
2022-12-27T14:37:17.784Z,10.68
2022-12-27T14:42:51.358Z,10.74
2022-12-27T14:48:23.478Z,10.27
2022-12-27T14:54:34.668Z,9.16
2022-12-27T14:59:55.730Z,9.85
2022-12-27T15:05:14.549Z,10.36
2022-12-27T15:10:34.717Z,10.35
2022-12-27T15:16:15.098Z,10.25
2022-12-27T15:21:41.383Z,10.18
2022-12-27T15:27:19.818Z,10.01
2022-12-27T15:32:51.209Z,9.28
2022-12-27T15:38:07.555Z,9.92
2022-12-27T15:43:21.073Z,9.38
2022-12-27T15:48:59.129Z,9.68
2022-12-27T15:54:12.003Z,9.60
2022-12-27T15:59:40.816Z,9.50
2022-12-27T16:04:51.234Z,9.47
2022-12-27T16:09:56.616Z,8.12
2022-12-27T16:15:32.629Z,9.12
2022-12-27T16:20:36.126Z,8.92
2022-12-27T16:25:42.040Z,9.19
2022-12-27T16:30:56.485Z,9.43
2022-12-27T16:36:18.725Z,9.27
2022-12-27T16:41:37.695Z,9.20
2022-12-27T16:47:10.548Z,9.13
2022-12-27T16:52:14.406Z,9.13
2022-12-27T16:57:27.263Z,9.07
2022-12-27T17:02:42.665Z,9.02
2022-12-27T17:07:54.979Z,9.02
2022-12-27T17:13:05.972Z,9.11
2022-12-27T17:18:26.058Z,8.22
2022-12-27T17:23:29.908Z,8.37
2022-12-27T17:28:42.987Z,8.43
2022-12-27T17:34:08.191Z,9.12
2022-12-27T17:39:26.198Z,9.08
2022-12-27T17:44:39.784Z,8.06
2022-12-27T17:49:43.595Z,8.63
2022-12-27T17:55:05.593Z,9.04
2022-12-27T18:00:23.956Z,8.52
2022-12-27T18:05:30.446Z,8.33
2022-12-27T18:10:37.359Z,8.90
2022-12-27T18:15:46.390Z,8.66
2022-12-27T18:20:56.829Z,8.40
2022-12-27T18:26:13.231Z,8.68
2022-12-27T18:31:44.434Z,7.80
2022-12-27T18:36:52.614Z,8.54
2022-12-27T18:41:57.069Z,8.70
2022-12-27T18:47:19.305Z,8.58
2022-12-27T18:52:35.905Z,8.54
2022-12-27T18:57:39.792Z,7.48
2022-12-27T19:02:43.569Z,7.71
2022-12-27T19:08:05.568Z,8.32
2022-12-27T19:13:22.086Z,8.02
2022-12-27T19:18:32.222Z,7.72
2022-12-27T19:23:38.567Z,8.25
2022-12-27T19:28:44.429Z,8.32
2022-12-27T19:33:55.290Z,8.27
2022-12-27T19:39:00.176Z,8.24
2022-12-27T19:44:04.518Z,8.30
2022-12-27T19:49:32.268Z,7.56
2022-12-27T19:54:34.030Z,8.24
2022-12-27T19:59:37.678Z,7.70
2022-12-27T20:04:41.091Z,7.82
2022-12-27T20:09:45.036Z,7.54
2022-12-27T20:14:59.113Z,6.58
2022-12-27T20:20:02.491Z,7.82
2022-12-27T20:25:09.004Z,7.88
2022-12-27T20:30:22.350Z,7.87
2022-12-27T20:35:25.870Z,6.51
2022-12-27T20:40:35.420Z,7.99
2022-12-27T20:45:38.691Z,7.63
2022-12-27T20:50:42.653Z,7.90
2022-12-27T20:56:00.318Z,7.72
2022-12-27T21:01:08.889Z,7.76
2022-12-27T21:06:26.867Z,7.62
2022-12-27T21:11:33.054Z,7.57
2022-12-27T21:16:36.568Z,7.65
2022-12-27T21:21:49.945Z,7.37
2022-12-27T21:26:56.533Z,7.59
2022-12-27T21:32:02.297Z,6.65
2022-12-27T21:37:11.482Z,7.32
2022-12-27T21:42:16.589Z,7.15
2022-12-27T21:47:19.974Z,6.07
2022-12-27T21:52:23.410Z,5.96
2022-12-27T21:57:26.652Z,5.94
2022-12-27T22:02:30.137Z,6.58
2022-12-27T22:07:33.950Z,6.95
2022-12-27T22:12:47.364Z,7.20
2022-12-27T22:17:50.837Z,7.16
2022-12-27T22:23:04.087Z,7.71
2022-12-27T22:28:07.526Z,7.24
2022-12-27T22:33:10.998Z,5.94
2022-12-27T22:38:14.401Z,7.57
2022-12-27T22:43:17.841Z,7.08
2022-12-27T22:48:21.269Z,7.14
2022-12-27T22:53:24.743Z,6.69
2022-12-27T22:58:34.385Z,6.99
2022-12-27T23:03:37.921Z,7.00
2022-12-27T23:08:42.959Z,6.84
2022-12-27T23:13:47.397Z,6.48
2022-12-27T23:18:50.969Z,5.55
2022-12-27T23:23:54.777Z,6.90
2022-12-27T23:28:58.822Z,6.88
2022-12-27T23:34:02.252Z,5.30
2022-12-27T23:39:05.784Z,6.55
2022-12-27T23:44:09.142Z,5.79
2022-12-27T23:49:12.488Z,6.76
2022-12-27T23:54:15.916Z,6.41
2022-12-27T23:59:19.257Z,6.04
